map of BRE home
BRE - Airport
Location
City:  Bremen, Bremen, Germany
Name:Neuenland
ICAO:EDDW
IATA:BRE

Details
Type:Airport (Flugplatz, Airfield)
Use:Public/Civil, International (customs port of entry)
Latitude:5302'51"N (53.047500)
Longitude:847'12"E (8.786667)
Datum:WGS 1984
Elevation:14 ft (4 m)
Variation:2.56E (WMM2015 magnetic declination)
0.14 annual change
Runways:2
Longest:6693 × 148 ft (2040 × 45 m), paved

Time
Time Zone:UTC+1 (DST+2)
Local Time:

Weather
METAR:EDDW 210850Z 19003KT 170V230 6000 NSC M06/M07 Q1022 NOSIG
TAF:EDDW 210500Z 2106/2206 21005KT 3500 BR NSC
BECMG 2106/2110 9999 PROB30
TEMPO 2120/2201 BKN008

Related Locations
Nearby:
Farthest:CHT: 11749 mi / 18908 km
Waitangi [Tuuta], CIT, NZ

Find:

   beyond  
but within

Other Information
Maps:
NOTAMs:
Links:
Sources:

  
  • flag of Germany
  • flag of Bremen
  

Sectional Chart

Flight Planning
at skyvector.com

Satellite Image

Google Maps Satellite view

 

Copyright © 2004-2019 Karl L. Swartz. All rights reserved.
The Great Circle Mapper name and logo are trademarks of the Great Circle Mapper.
All other trademarks mentioned herein belong to their respective owners.
Please see credits for attibutions and further copyright information.

  Follow gcmap on Facebook Follow gcmap on Twitter Follow gcmap on Google+ GCmap on LinkedIn

hCard Microformat

Geo Microformat